sensor_id;sensor_type;location;lat;lon;timestamp;temperature;humidity
19483;DHT22;9882;51.166;6.992;2023-03-24T00:01:23;12.10;99.90
19483;DHT22;9882;51.166;6.992;2023-03-24T00:03:52;12.10;99.90
19483;DHT22;9882;51.166;6.992;2023-03-24T00:06:20;12.00;99.90
19483;DHT22;9882;51.166;6.992;2023-03-24T00:08:49;12.00;99.90
19483;DHT22;9882;51.166;6.992;2023-03-24T00:11:19;12.00;99.90
19483;DHT22;9882;51.166;6.992;2023-03-24T00:13:48;12.00;99.90
19483;DHT22;9882;51.166;6.992;2023-03-24T00:16:18;12.00;99.90
19483;DHT22;9882;51.166;6.992;2023-03-24T00:18:49;12.10;99.90
19483;DHT22;9882;51.166;6.992;2023-03-24T00:21:20;12.00;99.90
19483;DHT22;9882;51.166;6.992;2023-03-24T00:23:51;12.00;99.90
19483;DHT22;9882;51.166;6.992;2023-03-24T00:26:21;12.10;99.90
19483;DHT22;9882;51.166;6.992;2023-03-24T00:28:51;12.00;99.90
19483;DHT22;9882;51.166;6.992;2023-03-24T00:31:20;12.10;99.90
19483;DHT22;9882;51.166;6.992;2023-03-24T00:33:51;12.00;99.90
19483;DHT22;9882;51.166;6.992;2023-03-24T00:36:23;12.00;99.90
19483;DHT22;9882;51.166;6.992;2023-03-24T00:38:54;12.00;99.90
19483;DHT22;9882;51.166;6.992;2023-03-24T00:41:37;12.00;99.90
19483;DHT22;9882;51.166;6.992;2023-03-24T00:44:07;12.00;99.90
19483;DHT22;9882;51.166;6.992;2023-03-24T00:46:44;12.00;99.90
19483;DHT22;9882;51.166;6.992;2023-03-24T00:49:27;12.10;99.90
19483;DHT22;9882;51.166;6.992;2023-03-24T00:52:10;12.10;99.90
19483;DHT22;9882;51.166;6.992;2023-03-24T00:54:40;11.90;99.90
19483;DHT22;9882;51.166;6.992;2023-03-24T00:57:10;11.90;99.90
19483;DHT22;9882;51.166;6.992;2023-03-24T00:59:40;12.00;99.90
19483;DHT22;9882;51.166;6.992;2023-03-24T01:02:15;11.90;99.90
19483;DHT22;9882;51.166;6.992;2023-03-24T01:04:50;12.00;99.90
19483;DHT22;9882;51.166;6.992;2023-03-24T01:07:20;11.90;99.90
19483;DHT22;9882;51.166;6.992;2023-03-24T01:09:50;11.90;99.90
19483;DHT22;9882;51.166;6.992;2023-03-24T01:12:25;11.90;99.90
19483;DHT22;9882;51.166;6.992;2023-03-24T01:14:57;11.90;99.90
19483;DHT22;9882;51.166;6.992;2023-03-24T01:17:27;11.90;99.90
19483;DHT22;9882;51.166;6.992;2023-03-24T01:19:58;11.90;99.90
19483;DHT22;9882;51.166;6.992;2023-03-24T01:22:28;11.90;99.90
19483;DHT22;9882;51.166;6.992;2023-03-24T01:25:00;11.80;99.90
19483;DHT22;9882;51.166;6.992;2023-03-24T01:27:29;11.90;99.90
19483;DHT22;9882;51.166;6.992;2023-03-24T01:29:59;11.80;99.90
19483;DHT22;9882;51.166;6.992;2023-03-24T01:32:29;11.90;99.90
19483;DHT22;9882;51.166;6.992;2023-03-24T01:34:59;11.90;99.90
19483;DHT22;9882;51.166;6.992;2023-03-24T01:37:28;11.90;99.90
19483;DHT22;9882;51.166;6.992;2023-03-24T01:39:57;11.90;99.90
19483;DHT22;9882;51.166;6.992;2023-03-24T01:42:28;11.90;99.90
19483;DHT22;9882;51.166;6.992;2023-03-24T01:45:00;11.90;99.90
19483;DHT22;9882;51.166;6.992;2023-03-24T01:47:29;11.90;99.90
19483;DHT22;9882;51.166;6.992;2023-03-24T01:50:00;11.90;99.90
19483;DHT22;9882;51.166;6.992;2023-03-24T01:52:34;11.90;99.90
19483;DHT22;9882;51.166;6.992;2023-03-24T01:55:06;11.90;99.90
19483;DHT22;9882;51.166;6.992;2023-03-24T01:57:39;11.90;99.90
19483;DHT22;9882;51.166;6.992;2023-03-24T02:00:12;11.90;99.90
19483;DHT22;9882;51.166;6.992;2023-03-24T02:03:10;11.90;99.90
19483;DHT22;9882;51.166;6.992;2023-03-24T02:05:52;11.90;99.90
19483;DHT22;9882;51.166;6.992;2023-03-24T02:08:27;11.80;99.90
19483;DHT22;9882;51.166;6.992;2023-03-24T02:10:59;11.90;99.90
19483;DHT22;9882;51.166;6.992;2023-03-24T02:13:38;11.80;99.90
19483;DHT22;9882;51.166;6.992;2023-03-24T02:16:26;11.90;99.90
19483;DHT22;9882;51.166;6.992;2023-03-24T02:19:26;11.90;99.90
19483;DHT22;9882;51.166;6.992;2023-03-24T02:22:26;11.90;99.90
19483;DHT22;9882;51.166;6.992;2023-03-24T02:25:35;11.90;99.90
19483;DHT22;9882;51.166;6.992;2023-03-24T02:28:19;11.90;99.90
19483;DHT22;9882;51.166;6.992;2023-03-24T02:31:15;11.90;99.90
19483;DHT22;9882;51.166;6.992;2023-03-24T02:34:15;11.90;99.90
19483;DHT22;9882;51.166;6.992;2023-03-24T02:37:28;11.90;99.90
19483;DHT22;9882;51.166;6.992;2023-03-24T02:40:21;11.90;99.90
19483;DHT22;9882;51.166;6.992;2023-03-24T02:43:10;12.00;99.90
19483;DHT22;9882;51.166;6.992;2023-03-24T02:45:51;12.00;99.90
19483;DHT22;9882;51.166;6.992;2023-03-24T02:48:27;12.10;99.90
19483;DHT22;9882;51.166;6.992;2023-03-24T02:51:05;12.10;99.90
19483;DHT22;9882;51.166;6.992;2023-03-24T02:53:42;12.10;99.90
19483;DHT22;9882;51.166;6.992;2023-03-24T02:56:31;12.10;99.90
19483;DHT22;9882;51.166;6.992;2023-03-24T02:59:18;12.10;99.90
19483;DHT22;9882;51.166;6.992;2023-03-24T03:01:59;12.10;99.90
19483;DHT22;9882;51.166;6.992;2023-03-24T03:04:40;12.20;99.90
19483;DHT22;9882;51.166;6.992;2023-03-24T03:07:13;12.20;99.90
19483;DHT22;9882;51.166;6.992;2023-03-24T03:09:47;12.20;99.90
19483;DHT22;9882;51.166;6.992;2023-03-24T03:12:19;12.30;99.90
19483;DHT22;9882;51.166;6.992;2023-03-24T03:14:52;12.40;99.90
19483;DHT22;9882;51.166;6.992;2023-03-24T03:17:26;12.30;99.90
19483;DHT22;9882;51.166;6.992;2023-03-24T03:19:59;12.40;99.90
19483;DHT22;9882;51.166;6.992;2023-03-24T03:22:39;12.50;99.90
19483;DHT22;9882;51.166;6.992;2023-03-24T03:25:12;12.60;99.90
19483;DHT22;9882;51.166;6.992;2023-03-24T03:27:44;12.50;99.90
19483;DHT22;9882;51.166;6.992;2023-03-24T03:30:15;12.50;99.90
19483;DHT22;9882;51.166;6.992;2023-03-24T03:32:55;12.70;99.90
19483;DHT22;9882;51.166;6.992;2023-03-24T03:35:30;12.60;99.90
19483;DHT22;9882;51.166;6.992;2023-03-24T03:38:08;12.70;99.90
19483;DHT22;9882;51.166;6.992;2023-03-24T03:40:41;12.70;99.90
19483;DHT22;9882;51.166;6.992;2023-03-24T03:43:18;12.70;99.90
19483;DHT22;9882;51.166;6.992;2023-03-24T03:45:47;12.70;99.90
19483;DHT22;9882;51.166;6.992;2023-03-24T03:48:20;12.70;99.90
19483;DHT22;9882;51.166;6.992;2023-03-24T03:50:53;12.80;99.90
19483;DHT22;9882;51.166;6.992;2023-03-24T03:53:33;12.70;99.90
19483;DHT22;9882;51.166;6.992;2023-03-24T03:56:04;12.80;99.90
19483;DHT22;9882;51.166;6.992;2023-03-24T03:58:40;12.90;99.90
19483;DHT22;9882;51.166;6.992;2023-03-24T04:01:16;12.90;99.90
19483;DHT22;9882;51.166;6.992;2023-03-24T04:04:20;12.80;99.90
19483;DHT22;9882;51.166;6.992;2023-03-24T04:07:22;12.90;99.90
19483;DHT22;9882;51.166;6.992;2023-03-24T04:10:16;12.90;99.90
19483;DHT22;9882;51.166;6.992;2023-03-24T04:12:59;12.70;99.90
19483;DHT22;9882;51.166;6.992;2023-03-24T04:15:56;12.70;99.90
19483;DHT22;9882;51.166;6.992;2023-03-24T04:19:11;12.80;99.90
19483;DHT22;9882;51.166;6.992;2023-03-24T04:21:56;12.80;99.90
19483;DHT22;9882;51.166;6.992;2023-03-24T04:24:39;12.70;99.90
19483;DHT22;9882;51.166;6.992;2023-03-24T04:27:22;12.70;99.90
19483;DHT22;9882;51.166;6.992;2023-03-24T04:30:04;12.80;99.90
19483;DHT22;9882;51.166;6.992;2023-03-24T04:32:41;12.80;99.90
19483;DHT22;9882;51.166;6.992;2023-03-24T04:35:20;12.90;99.90
19483;DHT22;9882;51.166;6.992;2023-03-24T04:38:15;12.90;99.90
19483;DHT22;9882;51.166;6.992;2023-03-24T04:40:52;12.90;99.90
19483;DHT22;9882;51.166;6.992;2023-03-24T04:43:26;12.70;99.90
19483;DHT22;9882;51.166;6.992;2023-03-24T04:46:05;12.70;99.90
19483;DHT22;9882;51.166;6.992;2023-03-24T04:48:59;12.40;99.90
19483;DHT22;9882;51.166;6.992;2023-03-24T04:51:33;12.20;99.90
19483;DHT22;9882;51.166;6.992;2023-03-24T04:54:04;12.10;99.90
19483;DHT22;9882;51.166;6.992;2023-03-24T04:56:40;12.10;99.90
19483;DHT22;9882;51.166;6.992;2023-03-24T04:59:17;12.10;99.90
19483;DHT22;9882;51.166;6.992;2023-03-24T05:01:46;12.10;99.90
19483;DHT22;9882;51.166;6.992;2023-03-24T05:04:38;12.20;99.90
19483;DHT22;9882;51.166;6.992;2023-03-24T05:07:16;12.10;99.90
19483;DHT22;9882;51.166;6.992;2023-03-24T05:09:48;12.00;99.90
19483;DHT22;9882;51.166;6.992;2023-03-24T05:12:17;12.10;99.90
19483;DHT22;9882;51.166;6.992;2023-03-24T05:15:06;12.10;99.90
19483;DHT22;9882;51.166;6.992;2023-03-24T05:17:37;12.10;99.90
19483;DHT22;9882;51.166;6.992;2023-03-24T05:20:08;12.00;99.90
19483;DHT22;9882;51.166;6.992;2023-03-24T05:22:41;12.10;99.90
19483;DHT22;9882;51.166;6.992;2023-03-24T05:25:10;12.10;99.90
19483;DHT22;9882;51.166;6.992;2023-03-24T05:27:39;12.00;99.90
19483;DHT22;9882;51.166;6.992;2023-03-24T05:30:25;11.90;99.90
19483;DHT22;9882;51.166;6.992;2023-03-24T05:33:02;12.00;99.90
19483;DHT22;9882;51.166;6.992;2023-03-24T05:35:32;12.00;99.90
19483;DHT22;9882;51.166;6.992;2023-03-24T05:38:01;12.00;99.90
19483;DHT22;9882;51.166;6.992;2023-03-24T05:40:30;12.00;99.90
19483;DHT22;9882;51.166;6.992;2023-03-24T05:43:11;11.90;99.90
19483;DHT22;9882;51.166;6.992;2023-03-24T05:45:46;11.90;99.90
19483;DHT22;9882;51.166;6.992;2023-03-24T05:48:26;11.90;99.90
19483;DHT22;9882;51.166;6.992;2023-03-24T05:51:15;11.80;99.90
19483;DHT22;9882;51.166;6.992;2023-03-24T05:53:45;11.70;99.90
19483;DHT22;9882;51.166;6.992;2023-03-24T05:56:20;11.70;99.90
19483;DHT22;9882;51.166;6.992;2023-03-24T05:59:12;11.50;99.90
19483;DHT22;9882;51.166;6.992;2023-03-24T06:02:02;11.50;99.90
19483;DHT22;9882;51.166;6.992;2023-03-24T06:04:49;11.50;99.90
19483;DHT22;9882;51.166;6.992;2023-03-24T06:07:23;11.40;99.90
19483;DHT22;9882;51.166;6.992;2023-03-24T06:09:54;11.20;99.90
19483;DHT22;9882;51.166;6.992;2023-03-24T06:12:24;11.10;99.90
19483;DHT22;9882;51.166;6.992;2023-03-24T06:14:59;11.10;99.90
19483;DHT22;9882;51.166;6.992;2023-03-24T06:17:29;11.10;99.90
19483;DHT22;9882;51.166;6.992;2023-03-24T06:20:04;10.90;99.90
19483;DHT22;9882;51.166;6.992;2023-03-24T06:22:55;11.10;99.90
19483;DHT22;9882;51.166;6.992;2023-03-24T06:25:31;10.90;99.90
19483;DHT22;9882;51.166;6.992;2023-03-24T06:28:14;10.90;99.90
19483;DHT22;9882;51.166;6.992;2023-03-24T06:30:45;10.80;99.90
19483;DHT22;9882;51.166;6.992;2023-03-24T06:33:22;10.70;99.90
19483;DHT22;9882;51.166;6.992;2023-03-24T06:35:53;10.90;99.90
19483;DHT22;9882;51.166;6.992;2023-03-24T06:38:24;10.80;99.90
19483;DHT22;9882;51.166;6.992;2023-03-24T06:40:53;10.90;99.90
19483;DHT22;9882;51.166;6.992;2023-03-24T06:43:27;10.80;99.90
19483;DHT22;9882;51.166;6.992;2023-03-24T06:45:56;10.60;99.90
19483;DHT22;9882;51.166;6.992;2023-03-24T06:48:27;10.70;99.90
19483;DHT22;9882;51.166;6.992;2023-03-24T06:51:04;10.70;99.90
19483;DHT22;9882;51.166;6.992;2023-03-24T06:53:35;10.60;99.90
19483;DHT22;9882;51.166;6.992;2023-03-24T06:56:07;10.70;99.90
19483;DHT22;9882;51.166;6.992;2023-03-24T06:58:43;10.60;99.90
19483;DHT22;9882;51.166;6.992;2023-03-24T07:01:19;10.60;99.90
19483;DHT22;9882;51.166;6.992;2023-03-24T07:03:51;10.60;99.90
19483;DHT22;9882;51.166;6.992;2023-03-24T07:06:37;10.60;99.90
19483;DHT22;9882;51.166;6.992;2023-03-24T07:09:15;10.50;99.90
19483;DHT22;9882;51.166;6.992;2023-03-24T07:11:45;10.50;99.90
19483;DHT22;9882;51.166;6.992;2023-03-24T07:14:14;10.60;99.90
19483;DHT22;9882;51.166;6.992;2023-03-24T07:16:44;10.70;99.90
19483;DHT22;9882;51.166;6.992;2023-03-24T07:19:33;10.70;99.90
19483;DHT22;9882;51.166;6.992;2023-03-24T07:22:28;10.70;99.90
19483;DHT22;9882;51.166;6.992;2023-03-24T07:25:16;10.70;99.90
19483;DHT22;9882;51.166;6.992;2023-03-24T07:27:54;10.70;99.90
19483;DHT22;9882;51.166;6.992;2023-03-24T07:30:24;10.70;99.90
19483;DHT22;9882;51.166;6.992;2023-03-24T07:32:57;10.70;99.90
19483;DHT22;9882;51.166;6.992;2023-03-24T07:35:28;10.60;99.90
19483;DHT22;9882;51.166;6.992;2023-03-24T07:37:57;10.70;99.90
19483;DHT22;9882;51.166;6.992;2023-03-24T07:40:28;10.70;99.90
19483;DHT22;9882;51.166;6.992;2023-03-24T07:42:59;10.80;99.90
19483;DHT22;9882;51.166;6.992;2023-03-24T07:45:37;10.80;99.90
19483;DHT22;9882;51.166;6.992;2023-03-24T07:48:06;10.70;99.90
19483;DHT22;9882;51.166;6.992;2023-03-24T07:50:36;10.70;99.90
19483;DHT22;9882;51.166;6.992;2023-03-24T07:53:21;10.70;99.90
19483;DHT22;9882;51.166;6.992;2023-03-24T07:55:51;10.60;99.90
19483;DHT22;9882;51.166;6.992;2023-03-24T07:58:23;10.60;99.90
19483;DHT22;9882;51.166;6.992;2023-03-24T08:01:02;10.70;99.90
19483;DHT22;9882;51.166;6.992;2023-03-24T08:03:38;10.80;99.90
19483;DHT22;9882;51.166;6.992;2023-03-24T08:06:24;10.80;99.90
19483;DHT22;9882;51.166;6.992;2023-03-24T08:08:55;10.80;99.90
19483;DHT22;9882;51.166;6.992;2023-03-24T08:11:25;10.80;99.90
19483;DHT22;9882;51.166;6.992;2023-03-24T08:13:54;10.80;99.90
19483;DHT22;9882;51.166;6.992;2023-03-24T08:16:24;10.80;99.90
19483;DHT22;9882;51.166;6.992;2023-03-24T08:18:53;10.90;99.90
19483;DHT22;9882;51.166;6.992;2023-03-24T08:21:24;10.80;99.90
19483;DHT22;9882;51.166;6.992;2023-03-24T08:23:53;10.90;99.90
19483;DHT22;9882;51.166;6.992;2023-03-24T08:26:22;10.90;99.90
19483;DHT22;9882;51.166;6.992;2023-03-24T08:28:54;10.90;99.90
19483;DHT22;9882;51.166;6.992;2023-03-24T08:31:23;10.90;99.90
19483;DHT22;9882;51.166;6.992;2023-03-24T08:33:53;11.10;99.90
19483;DHT22;9882;51.166;6.992;2023-03-24T08:36:22;11.20;99.90
19483;DHT22;9882;51.166;6.992;2023-03-24T08:38:53;11.30;99.90
19483;DHT22;9882;51.166;6.992;2023-03-24T08:41:23;11.30;99.90
19483;DHT22;9882;51.166;6.992;2023-03-24T08:43:58;11.20;99.90
19483;DHT22;9882;51.166;6.992;2023-03-24T08:46:27;11.20;99.90
19483;DHT22;9882;51.166;6.992;2023-03-24T08:48:56;11.20;99.90
19483;DHT22;9882;51.166;6.992;2023-03-24T08:51:25;11.40;99.90
19483;DHT22;9882;51.166;6.992;2023-03-24T08:53:54;11.40;99.90
19483;DHT22;9882;51.166;6.992;2023-03-24T08:56:23;11.40;99.90
19483;DHT22;9882;51.166;6.992;2023-03-24T08:58:52;11.40;99.90
19483;DHT22;9882;51.166;6.992;2023-03-24T09:01:23;11.60;99.90
19483;DHT22;9882;51.166;6.992;2023-03-24T09:03:51;11.50;99.90
19483;DHT22;9882;51.166;6.992;2023-03-24T09:06:20;11.50;99.90
19483;DHT22;9882;51.166;6.992;2023-03-24T09:08:49;11.50;99.90
19483;DHT22;9882;51.166;6.992;2023-03-24T09:11:20;11.50;99.90
19483;DHT22;9882;51.166;6.992;2023-03-24T09:13:49;11.50;99.90
19483;DHT22;9882;51.166;6.992;2023-03-24T09:16:18;11.60;99.90
19483;DHT22;9882;51.166;6.992;2023-03-24T09:18:48;11.70;99.90
19483;DHT22;9882;51.166;6.992;2023-03-24T09:21:17;11.90;99.90
19483;DHT22;9882;51.166;6.992;2023-03-24T09:23:46;12.00;99.90
19483;DHT22;9882;51.166;6.992;2023-03-24T09:26:15;12.00;99.90
19483;DHT22;9882;51.166;6.992;2023-03-24T09:28:43;12.00;99.90
19483;DHT22;9882;51.166;6.992;2023-03-24T09:31:12;11.80;99.90
19483;DHT22;9882;51.166;6.992;2023-03-24T09:33:41;11.90;99.90
19483;DHT22;9882;51.166;6.992;2023-03-24T09:36:11;12.00;99.90
19483;DHT22;9882;51.166;6.992;2023-03-24T09:38:40;12.10;99.90
19483;DHT22;9882;51.166;6.992;2023-03-24T09:41:13;12.10;99.90
19483;DHT22;9882;51.166;6.992;2023-03-24T09:43:46;12.10;99.90
19483;DHT22;9882;51.166;6.992;2023-03-24T09:46:24;12.00;99.90
19483;DHT22;9882;51.166;6.992;2023-03-24T09:48:55;11.90;99.90
19483;DHT22;9882;51.166;6.992;2023-03-24T09:51:26;12.10;99.90
19483;DHT22;9882;51.166;6.992;2023-03-24T09:54:00;12.40;99.90
19483;DHT22;9882;51.166;6.992;2023-03-24T09:56:33;12.40;99.90
19483;DHT22;9882;51.166;6.992;2023-03-24T09:59:04;12.30;99.90
19483;DHT22;9882;51.166;6.992;2023-03-24T10:01:34;12.30;99.90
19483;DHT22;9882;51.166;6.992;2023-03-24T10:04:04;12.40;99.90
19483;DHT22;9882;51.166;6.992;2023-03-24T10:06:37;12.40;99.90
19483;DHT22;9882;51.166;6.992;2023-03-24T10:09:21;12.20;99.90
19483;DHT22;9882;51.166;6.992;2023-03-24T10:14:50;12.30;99.90
19483;DHT22;9882;51.166;6.992;2023-03-24T10:17:28;12.60;99.90
19483;DHT22;9882;51.166;6.992;2023-03-24T10:20:03;12.50;99.90
19483;DHT22;9882;51.166;6.992;2023-03-24T10:22:41;12.40;99.90
19483;DHT22;9882;51.166;6.992;2023-03-24T10:25:17;12.40;99.90
19483;DHT22;9882;51.166;6.992;2023-03-24T10:27:51;12.10;99.90
19483;DHT22;9882;51.166;6.992;2023-03-24T10:30:24;12.10;99.90
19483;DHT22;9882;51.166;6.992;2023-03-24T10:32:54;12.20;99.90
19483;DHT22;9882;51.166;6.992;2023-03-24T10:35:26;12.30;99.90
19483;DHT22;9882;51.166;6.992;2023-03-24T10:37:58;12.50;99.90
19483;DHT22;9882;51.166;6.992;2023-03-24T10:40:30;12.40;99.90
19483;DHT22;9882;51.166;6.992;2023-03-24T10:43:00;12.40;99.90
19483;DHT22;9882;51.166;6.992;2023-03-24T10:45:32;12.40;99.90
19483;DHT22;9882;51.166;6.992;2023-03-24T10:48:03;12.50;99.90
19483;DHT22;9882;51.166;6.992;2023-03-24T10:50:32;12.70;99.90
19483;DHT22;9882;51.166;6.992;2023-03-24T10:53:10;12.80;99.90
19483;DHT22;9882;51.166;6.992;2023-03-24T10:55:44;12.80;99.90
19483;DHT22;9882;51.166;6.992;2023-03-24T10:58:19;13.00;99.90
19483;DHT22;9882;51.166;6.992;2023-03-24T11:00:48;13.20;99.90
19483;DHT22;9882;51.166;6.992;2023-03-24T11:03:24;13.30;99.90
19483;DHT22;9882;51.166;6.992;2023-03-24T11:05:59;13.20;99.90
19483;DHT22;9882;51.166;6.992;2023-03-24T11:08:34;13.30;99.90
19483;DHT22;9882;51.166;6.992;2023-03-24T11:11:14;13.50;99.90
19483;DHT22;9882;51.166;6.992;2023-03-24T11:13:53;13.60;99.90
19483;DHT22;9882;51.166;6.992;2023-03-24T11:16:27;13.50;99.90
19483;DHT22;9882;51.166;6.992;2023-03-24T11:18:58;13.50;99.90
19483;DHT22;9882;51.166;6.992;2023-03-24T11:21:29;13.60;99.90
19483;DHT22;9882;51.166;6.992;2023-03-24T11:24:01;13.50;99.90
19483;DHT22;9882;51.166;6.992;2023-03-24T11:26:32;13.50;99.90
19483;DHT22;9882;51.166;6.992;2023-03-24T11:29:03;13.50;99.90
19483;DHT22;9882;51.166;6.992;2023-03-24T11:31:35;13.50;99.90
19483;DHT22;9882;51.166;6.992;2023-03-24T11:34:08;13.50;99.90
19483;DHT22;9882;51.166;6.992;2023-03-24T11:36:44;13.40;99.90
19483;DHT22;9882;51.166;6.992;2023-03-24T11:39:19;13.50;99.90
19483;DHT22;9882;51.166;6.992;2023-03-24T11:42:03;13.90;99.90
19483;DHT22;9882;51.166;6.992;2023-03-24T11:44:43;13.70;99.90
19483;DHT22;9882;51.166;6.992;2023-03-24T11:47:18;13.60;99.90
19483;DHT22;9882;51.166;6.992;2023-03-24T11:49:52;13.80;99.90
19483;DHT22;9882;51.166;6.992;2023-03-24T11:52:26;13.60;99.90
19483;DHT22;9882;51.166;6.992;2023-03-24T11:54:57;13.60;99.90
19483;DHT22;9882;51.166;6.992;2023-03-24T11:57:40;13.80;99.90
19483;DHT22;9882;51.166;6.992;2023-03-24T12:00:16;13.70;99.90
19483;DHT22;9882;51.166;6.992;2023-03-24T12:03:00;13.60;99.90
19483;DHT22;9882;51.166;6.992;2023-03-24T12:05:39;13.90;99.90
19483;DHT22;9882;51.166;6.992;2023-03-24T12:11:15;14.00;99.90
19483;DHT22;9882;51.166;6.992;2023-03-24T12:13:50;14.00;99.90
19483;DHT22;9882;51.166;6.992;2023-03-24T12:16:47;14.00;99.90
19483;DHT22;9882;51.166;6.992;2023-03-24T12:19:32;13.90;99.90
19483;DHT22;9882;51.166;6.992;2023-03-24T12:22:10;13.80;99.90
19483;DHT22;9882;51.166;6.992;2023-03-24T12:24:54;13.90;99.90
19483;DHT22;9882;51.166;6.992;2023-03-24T12:27:36;13.80;99.90
19483;DHT22;9882;51.166;6.992;2023-03-24T12:30:14;13.90;99.90
19483;DHT22;9882;51.166;6.992;2023-03-24T12:32:53;14.00;99.90
19483;DHT22;9882;51.166;6.992;2023-03-24T12:35:54;14.20;99.90
19483;DHT22;9882;51.166;6.992;2023-03-24T12:38:37;14.50;99.90
19483;DHT22;9882;51.166;6.992;2023-03-24T12:41:27;14.50;99.90
19483;DHT22;9882;51.166;6.992;2023-03-24T12:44:22;14.20;99.90
19483;DHT22;9882;51.166;6.992;2023-03-24T12:46:58;14.10;99.90
19483;DHT22;9882;51.166;6.992;2023-03-24T12:49:40;14.00;99.90
19483;DHT22;9882;51.166;6.992;2023-03-24T12:52:32;14.00;99.90
19483;DHT22;9882;51.166;6.992;2023-03-24T12:55:08;14.10;99.90
19483;DHT22;9882;51.166;6.992;2023-03-24T12:57:43;14.10;99.90
19483;DHT22;9882;51.166;6.992;2023-03-24T13:00:21;14.20;99.90
19483;DHT22;9882;51.166;6.992;2023-03-24T13:02:54;14.20;99.90
19483;DHT22;9882;51.166;6.992;2023-03-24T13:05:29;14.30;99.90
19483;DHT22;9882;51.166;6.992;2023-03-24T13:08:04;14.40;99.90
19483;DHT22;9882;51.166;6.992;2023-03-24T13:10:36;14.20;99.90
19483;DHT22;9882;51.166;6.992;2023-03-24T13:13:12;14.20;99.90
19483;DHT22;9882;51.166;6.992;2023-03-24T13:15:46;14.30;99.90
19483;DHT22;9882;51.166;6.992;2023-03-24T13:18:28;14.30;99.90
19483;DHT22;9882;51.166;6.992;2023-03-24T13:21:01;14.20;99.90
19483;DHT22;9882;51.166;6.992;2023-03-24T13:23:38;14.20;99.90
19483;DHT22;9882;51.166;6.992;2023-03-24T13:26:17;14.20;99.90
19483;DHT22;9882;51.166;6.992;2023-03-24T13:28:56;14.00;99.90
19483;DHT22;9882;51.166;6.992;2023-03-24T13:31:31;14.10;99.90
19483;DHT22;9882;51.166;6.992;2023-03-24T13:34:03;14.20;99.90
19483;DHT22;9882;51.166;6.992;2023-03-24T13:36:41;14.30;99.90
19483;DHT22;9882;51.166;6.992;2023-03-24T13:39:13;14.40;99.90
19483;DHT22;9882;51.166;6.992;2023-03-24T13:41:48;14.60;99.90
19483;DHT22;9882;51.166;6.992;2023-03-24T13:44:19;14.60;99.90
19483;DHT22;9882;51.166;6.992;2023-03-24T13:47:13;14.60;99.90
19483;DHT22;9882;51.166;6.992;2023-03-24T13:49:50;14.70;99.90
19483;DHT22;9882;51.166;6.992;2023-03-24T13:52:26;15.00;99.90
19483;DHT22;9882;51.166;6.992;2023-03-24T13:54:58;15.30;99.90
19483;DHT22;9882;51.166;6.992;2023-03-24T13:57:27;15.20;99.90
19483;DHT22;9882;51.166;6.992;2023-03-24T14:00:00;15.10;99.90
19483;DHT22;9882;51.166;6.992;2023-03-24T14:02:44;15.10;99.90
19483;DHT22;9882;51.166;6.992;2023-03-24T14:05:57;14.90;99.90
19483;DHT22;9882;51.166;6.992;2023-03-24T14:08:53;14.80;99.90
19483;DHT22;9882;51.166;6.992;2023-03-24T14:11:48;14.50;99.90
19483;DHT22;9882;51.166;6.992;2023-03-24T14:14:20;14.60;99.90
19483;DHT22;9882;51.166;6.992;2023-03-24T14:16:51;14.40;99.90
19483;DHT22;9882;51.166;6.992;2023-03-24T14:19:29;14.60;99.90
19483;DHT22;9882;51.166;6.992;2023-03-24T14:22:11;14.80;99.90
19483;DHT22;9882;51.166;6.992;2023-03-24T14:24:42;14.90;99.90
19483;DHT22;9882;51.166;6.992;2023-03-24T14:27:32;16.00;99.90
19483;DHT22;9882;51.166;6.992;2023-03-24T14:30:04;15.40;99.90
19483;DHT22;9882;51.166;6.992;2023-03-24T14:32:44;14.90;99.90
19483;DHT22;9882;51.166;6.992;2023-03-24T14:35:32;15.10;99.90
19483;DHT22;9882;51.166;6.992;2023-03-24T14:38:03;14.90;99.90
19483;DHT22;9882;51.166;6.992;2023-03-24T14:40:35;14.80;99.90
19483;DHT22;9882;51.166;6.992;2023-03-24T14:43:17;14.70;99.90
19483;DHT22;9882;51.166;6.992;2023-03-24T14:45:58;14.80;99.90
19483;DHT22;9882;51.166;6.992;2023-03-24T14:48:32;15.30;99.90
19483;DHT22;9882;51.166;6.992;2023-03-24T14:51:12;16.40;99.90
19483;DHT22;9882;51.166;6.992;2023-03-24T14:53:44;15.50;99.90
19483;DHT22;9882;51.166;6.992;2023-03-24T14:56:15;15.10;99.90
19483;DHT22;9882;51.166;6.992;2023-03-24T14:58:47;15.20;99.90
19483;DHT22;9882;51.166;6.992;2023-03-24T15:01:18;15.80;99.90
19483;DHT22;9882;51.166;6.992;2023-03-24T15:03:54;16.50;99.90
19483;DHT22;9882;51.166;6.992;2023-03-24T15:06:26;17.20;99.90
19483;DHT22;9882;51.166;6.992;2023-03-24T15:08:57;17.40;99.90
19483;DHT22;9882;51.166;6.992;2023-03-24T15:11:29;16.30;99.90
19483;DHT22;9882;51.166;6.992;2023-03-24T15:14:00;15.90;99.90
19483;DHT22;9882;51.166;6.992;2023-03-24T15:16:30;15.50;99.90
19483;DHT22;9882;51.166;6.992;2023-03-24T15:19:03;15.80;99.90
19483;DHT22;9882;51.166;6.992;2023-03-24T15:21:36;16.50;99.90
19483;DHT22;9882;51.166;6.992;2023-03-24T15:24:22;17.20;99.90
19483;DHT22;9882;51.166;6.992;2023-03-24T15:26:54;17.00;99.90
19483;DHT22;9882;51.166;6.992;2023-03-24T15:29:23;17.40;99.90
19483;DHT22;9882;51.166;6.992;2023-03-24T15:31:52;17.80;99.90
19483;DHT22;9882;51.166;6.992;2023-03-24T15:34:25;17.60;99.90
19483;DHT22;9882;51.166;6.992;2023-03-24T15:36:57;16.80;99.90
19483;DHT22;9882;51.166;6.992;2023-03-24T15:39:33;15.90;99.90
19483;DHT22;9882;51.166;6.992;2023-03-24T15:42:04;15.70;99.90
19483;DHT22;9882;51.166;6.992;2023-03-24T15:44:36;15.30;99.90
19483;DHT22;9882;51.166;6.992;2023-03-24T15:47:14;15.20;99.90
19483;DHT22;9882;51.166;6.992;2023-03-24T15:49:46;15.30;99.90
19483;DHT22;9882;51.166;6.992;2023-03-24T15:52:27;15.30;99.90
19483;DHT22;9882;51.166;6.992;2023-03-24T15:54:59;15.10;99.90
19483;DHT22;9882;51.166;6.992;2023-03-24T15:57:37;15.20;99.90
19483;DHT22;9882;51.166;6.992;2023-03-24T16:00:13;14.10;99.90
19483;DHT22;9882;51.166;6.992;2023-03-24T16:02:47;12.80;99.90
19483;DHT22;9882;51.166;6.992;2023-03-24T16:05:20;12.40;99.90
19483;DHT22;9882;51.166;6.992;2023-03-24T16:07:55;11.70;99.90
19483;DHT22;9882;51.166;6.992;2023-03-24T16:10:33;11.00;99.90
19483;DHT22;9882;51.166;6.992;2023-03-24T16:13:13;10.80;99.90
19483;DHT22;9882;51.166;6.992;2023-03-24T16:15:44;11.50;99.90
19483;DHT22;9882;51.166;6.992;2023-03-24T16:18:16;11.00;99.90
19483;DHT22;9882;51.166;6.992;2023-03-24T16:20:46;11.10;99.90
19483;DHT22;9882;51.166;6.992;2023-03-24T16:23:16;10.60;99.90
19483;DHT22;9882;51.166;6.992;2023-03-24T16:25:45;11.00;99.90
19483;DHT22;9882;51.166;6.992;2023-03-24T16:28:17;10.70;99.90
19483;DHT22;9882;51.166;6.992;2023-03-24T16:30:50;11.30;99.90
19483;DHT22;9882;51.166;6.992;2023-03-24T16:33:20;10.90;99.90
19483;DHT22;9882;51.166;6.992;2023-03-24T16:35:49;11.20;99.90
19483;DHT22;9882;51.166;6.992;2023-03-24T16:38:19;10.80;99.90
19483;DHT22;9882;51.166;6.992;2023-03-24T16:40:50;11.10;99.90
19483;DHT22;9882;51.166;6.992;2023-03-24T16:43:19;10.70;99.90
19483;DHT22;9882;51.166;6.992;2023-03-24T16:45:49;11.30;99.90